Time;durP1;ratioP1;P1;durP2;ratioP2;P2;SDS_P1;SDS_P2;PMS_P1;PMS_P2;Temp;Humidity;BMP_temperature;BMP_pressure;BME280_temperature;BME280_humidity;BME280_pressure;Samples;Min_cycle;Max_cycle;Signal;HPM_P1;HPM_P2
2022/11/11 00:00:30;;;;;;;3.30;1.70;;;22.10;96.10;;;;;;5021547;28;20806;-39
2022/11/11 00:02:57;;;;;;;2.60;1.67;;;22.10;96.10;;;;;;5026516;28;20466;-40
2022/11/11 00:05:25;;;;;;;3.10;2.07;;;22.10;96.00;;;;;;5023003;28;20478;-41
2022/11/11 00:07:58;;;;;;;2.43;1.63;;;22.10;96.10;;;;;;5029500;28;20454;-42
2022/11/11 00:10:25;;;;;;;2.50;1.40;;;22.10;96.10;;;;;;5027206;28;20454;-38
2022/11/11 00:12:52;;;;;;;1.87;1.30;;;22.10;96.10;;;;;;5020275;28;21027;-41
2022/11/11 00:15:19;;;;;;;2.60;1.33;;;22.00;96.10;;;;;;5028199;28;20829;-36
2022/11/11 00:26:05;;;;;;;1.57;1.07;;;22.00;96.10;;;;;;5028263;28;20842;-39
2022/11/11 00:28:32;;;;;;;2.97;1.77;;;22.00;96.10;;;;;;5024365;28;20846;-44
2022/11/11 00:31:03;;;;;;;1.73;1.63;;;22.00;96.10;;;;;;5024953;28;20883;-42
2022/11/11 00:33:30;;;;;;;2.28;1.60;;;22.00;96.50;;;;;;5023231;28;20207;-41
2022/11/11 00:35:56;;;;;;;1.88;1.20;;;22.00;96.20;;;;;;5027948;28;20292;-38
2022/11/11 00:41:09;;;;;;;1.80;1.45;;;22.00;96.20;;;;;;5027068;28;20956;-40
2022/11/11 00:43:36;;;;;;;2.07;1.53;;;21.90;96.20;;;;;;5023675;28;20199;-39
2022/11/11 00:51:31;;;;;;;1.50;1.20;;;21.90;96.40;;;;;;5026034;28;20245;-43
2022/11/11 00:53:59;;;;;;;4.57;1.63;;;21.80;96.40;;;;;;5022563;28;20470;-37
2022/11/11 00:56:26;;;;;;;1.60;1.40;;;21.80;96.50;;;;;;5022687;28;20223;-39
2022/11/11 00:58:53;;;;;;;1.60;1.10;;;21.80;96.60;;;;;;5023984;28;20458;-45
2022/11/11 01:01:20;;;;;;;1.90;1.60;;;21.70;96.60;;;;;;5026362;28;20466;-39
2022/11/11 01:03:46;;;;;;;2.25;1.13;;;21.70;96.60;;;;;;5023601;28;20195;-41
2022/11/11 01:06:14;;;;;;;2.08;1.38;;;21.70;96.70;;;;;;5024934;28;20203;-44
2022/11/11 01:08:41;;;;;;;1.93;1.50;;;21.70;96.80;;;;;;5028669;28;20200;-39
2022/11/11 01:11:14;;;;;;;1.60;1.10;;;21.60;96.80;;;;;;5027916;28;20466;-42
2022/11/11 01:13:42;;;;;;;2.53;1.63;;;21.60;96.90;;;;;;5021822;28;21017;-41
2022/11/11 01:16:13;;;;;;;2.33;1.17;;;21.60;97.00;;;;;;5027511;28;20207;-45
2022/11/11 01:18:40;;;;;;;1.98;1.52;;;21.60;97.10;;;;;;5025561;28;20254;-39
2022/11/11 01:21:10;;;;;;;1.67;1.20;;;21.50;97.10;;;;;;5028679;28;20369;-38
2022/11/11 01:23:39;;;;;;;2.40;1.43;;;21.50;97.20;;;;;;5027087;28;20196;-44
2022/11/11 01:26:07;;;;;;;1.83;1.20;;;21.50;97.30;;;;;;5026684;28;20466;-41
2022/11/11 01:28:35;;;;;;;2.60;1.48;;;21.40;97.30;;;;;;5024544;28;20466;-43
2022/11/11 01:31:03;;;;;;;1.75;1.10;;;21.40;97.40;;;;;;5018285;28;20192;-41
2022/11/11 01:33:29;;;;;;;1.20;0.98;;;21.40;97.50;;;;;;5023835;28;20664;-42
2022/11/11 01:35:56;;;;;;;1.60;1.20;;;21.40;97.60;;;;;;5017566;28;20564;-43
2022/11/11 01:38:23;;;;;;;1.55;1.00;;;21.40;97.70;;;;;;5025208;28;20196;-38
2022/11/11 01:40:50;;;;;;;3.25;1.30;;;21.30;97.70;;;;;;5027137;28;20286;-41
2022/11/11 01:43:22;;;;;;;1.55;1.13;;;21.30;97.80;;;;;;5022369;28;20556;-39
2022/11/11 01:45:53;;;;;;;2.10;1.38;;;21.30;97.90;;;;;;5027260;28;20223;-38
2022/11/11 01:51:16;;;;;;;1.48;1.30;;;21.20;98.00;;;;;;5025520;28;20203;-40
2022/11/11 01:53:44;;;;;;;2.05;1.30;;;21.20;98.10;;;;;;5027128;28;20219;-40
2022/11/11 01:56:12;;;;;;;1.85;1.15;;;21.10;98.20;;;;;;5030991;28;20203;-39
2022/11/11 01:58:39;;;;;;;1.85;1.13;;;21.10;98.30;;;;;;5027971;28;20567;-44
2022/11/11 02:01:07;;;;;;;2.17;1.20;;;21.10;98.40;;;;;;5026685;28;20203;-40
2022/11/11 02:03:38;;;;;;;4.25;1.30;;;21.00;98.40;;;;;;5026272;28;20667;-39
2022/11/11 02:06:05;;;;;;;4.60;1.40;;;21.00;98.60;;;;;;5027186;28;20330;-40
2022/11/11 02:08:36;;;;;;;1.50;1.40;;;21.10;98.60;;;;;;5030373;28;20231;-41
2022/11/11 02:11:06;;;;;;;1.88;1.40;;;21.00;98.70;;;;;;5021851;28;20199;-41
2022/11/11 02:16:24;;;;;;;2.60;1.50;;;20.90;98.80;;;;;;5020852;28;20218;-43
2022/11/11 02:18:51;;;;;;;1.20;0.90;;;21.00;99.00;;;;;;5027383;28;20559;-41
2022/11/11 02:21:23;;;;;;;1.63;1.23;;;20.90;99.00;;;;;;5029411;28;20195;-44
2022/11/11 02:24:01;;;;;;;1.80;1.17;;;20.90;99.10;;;;;;5030509;28;20187;-41
2022/11/11 02:26:30;;;;;;;1.23;1.10;;;20.80;99.10;;;;;;5030371;28;20206;-42
2022/11/11 02:28:57;;;;;;;2.53;1.40;;;20.80;99.20;;;;;;5023589;28;20567;-43
2022/11/11 02:31:27;;;;;;;1.70;1.27;;;20.80;99.30;;;;;;5027712;28;20568;-39
2022/11/11 02:33:54;;;;;;;2.28;1.27;;;20.80;99.40;;;;;;5027027;28;20235;-41
2022/11/11 02:36:22;;;;;;;1.52;1.13;;;20.70;99.50;;;;;;5029484;28;20203;-41
2022/11/11 02:38:49;;;;;;;1.70;1.08;;;20.70;99.50;;;;;;5028642;28;20202;-43
2022/11/11 02:44:01;;;;;;;1.13;1.00;;;20.70;99.70;;;;;;5027504;28;20211;-45
2022/11/11 02:46:27;;;;;;;1.75;1.23;;;20.70;99.80;;;;;;5029424;28;20623;-45
2022/11/11 02:48:54;;;;;;;1.20;1.00;;;20.60;99.80;;;;;;5026705;28;20599;-46
2022/11/11 02:51:21;;;;;;;2.17;1.08;;;20.60;99.90;;;;;;5030949;28;20192;-40
2022/11/11 02:53:47;;;;;;;1.98;1.25;;;20.60;99.90;;;;;;5028215;28;20725;-45
2022/11/11 02:57:05;;;;;;;1.50;1.30;;;20.60;99.90;;;;;;5028440;28;20212;-38
2022/11/11 02:59:03;;;;;;;1.40;1.10;;;20.50;99.90;;;;;;5026943;28;20195;-41
2022/11/11 03:01:30;;;;;;;1.25;1.02;;;20.50;99.90;;;;;;5028232;28;20651;-40
2022/11/11 03:03:56;;;;;;;1.67;1.05;;;20.50;99.90;;;;;;5023831;28;20215;-39
2022/11/11 03:06:23;;;;;;;1.63;1.25;;;20.50;99.90;;;;;;5021135;28;20230;-37
2022/11/11 03:08:49;;;;;;;1.38;1.05;;;20.50;99.90;;;;;;5030629;28;20203;-42
2022/11/11 03:11:26;;;;;;;3.35;2.20;;;20.40;99.90;;;;;;5027993;28;20202;-44
2022/11/11 03:13:53;;;;;;;1.33;1.17;;;20.50;99.90;;;;;;5022438;28;20191;-42
2022/11/11 03:19:01;;;;;;;1.40;1.10;;;20.40;99.90;;;;;;5027562;28;20192;-45
2022/11/11 03:21:28;;;;;;;1.30;1.10;;;20.40;99.90;;;;;;5028928;28;20210;-44
2022/11/11 03:23:55;;;;;;;2.10;1.23;;;20.30;99.90;;;;;;5025370;28;20285;-39
2022/11/11 03:26:21;;;;;;;1.38;1.27;;;20.30;99.90;;;;;;5026975;28;20220;-48
2022/11/11 03:28:47;;;;;;;2.00;1.20;;;20.30;99.90;;;;;;5028933;28;20814;-40
2022/11/11 03:31:14;;;;;;;2.08;1.00;;;20.30;99.90;;;;;;5021960;28;20196;-44
2022/11/11 03:33:42;;;;;;;1.70;1.23;;;20.30;99.90;;;;;;5022988;28;20195;-40
2022/11/11 03:36:09;;;;;;;1.63;0.93;;;20.20;99.90;;;;;;5022738;28;20203;-42
2022/11/11 03:38:34;;;;;;;1.83;1.15;;;20.30;99.90;;;;;;5029577;28;20204;-41
2022/11/11 03:41:01;;;;;;;2.07;1.03;;;20.20;99.90;;;;;;5028604;28;20192;-41
2022/11/11 03:43:30;;;;;;;1.75;0.90;;;20.20;99.90;;;;;;5026521;28;20203;-42
2022/11/11 03:45:58;;;;;;;1.23;0.90;;;20.20;99.90;;;;;;5025557;28;20618;-44
2022/11/11 03:48:26;;;;;;;1.52;1.08;;;20.20;99.90;;;;;;5027812;28;20192;-40
2022/11/11 03:50:55;;;;;;;1.33;0.90;;;20.20;99.90;;;;;;5023697;28;20187;-40
2022/11/11 03:53:22;;;;;;;2.50;1.52;;;20.20;99.90;;;;;;5028512;28;20207;-41
2022/11/11 03:55:50;;;;;;;1.10;1.00;;;20.10;99.90;;;;;;5029172;28;20226;-42
2022/11/11 03:58:17;;;;;;;1.50;1.08;;;20.10;99.90;;;;;;5028065;28;20191;-49
2022/11/11 04:00:44;;;;;;;1.60;1.00;;;20.10;99.90;;;;;;5029214;28;20199;-40
2022/11/11 04:11:32;;;;;;;2.05;1.10;;;20.00;99.90;;;;;;5026530;28;20202;-45
2022/11/11 04:16:45;;;;;;;1.23;1.10;;;20.00;99.90;;;;;;5022258;28;20222;-41
2022/11/11 04:21:57;;;;;;;1.60;1.10;;;19.90;99.90;;;;;;5007444;28;20203;-40
2022/11/11 04:27:09;;;;;;;1.67;1.20;;;19.90;99.90;;;;;;5027818;28;20202;-41
2022/11/11 04:29:35;;;;;;;1.23;1.10;;;20.00;99.90;;;;;;5027010;28;20202;-41
2022/11/11 04:34:50;;;;;;;1.55;1.10;;;20.40;99.90;;;;;;5018999;28;20896;-42
2022/11/11 04:37:19;;;;;;;1.50;1.30;;;20.60;99.90;;;;;;5027798;28;20198;-42
2022/11/11 04:42:31;;;;;;;1.65;1.20;;;20.80;99.90;;;;;;5025977;28;20677;-45
2022/11/11 04:47:54;;;;;;;1.40;1.15;;;21.00;99.90;;;;;;5025425;28;20682;-40
2022/11/11 04:50:21;;;;;;;1.60;1.00;;;21.10;99.90;;;;;;5021672;28;20199;-39
2022/11/11 04:52:49;;;;;;;1.10;0.90;;;21.20;99.90;;;;;;5026560;28;20787;-39
2022/11/11 04:58:00;;;;;;;1.97;1.07;;;21.20;99.90;;;;;;5027563;28;20326;-41
2022/11/11 05:00:27;;;;;;;1.37;1.07;;;21.20;99.90;;;;;;5026485;28;20486;-41
2022/11/11 05:11:05;;;;;;;1.20;1.10;;;21.00;99.90;;;;;;5026601;28;20595;-40
2022/11/11 05:21:53;;;;;;;1.83;1.10;;;21.30;99.80;;;;;;5015084;28;20894;-48
2022/11/11 05:27:13;;;;;;;1.20;0.83;;;21.70;99.10;;;;;;5003554;28;20588;-40
2022/11/11 05:29:40;;;;;;;1.80;1.23;;;21.70;98.70;;;;;;5030198;28;21047;-42
2022/11/11 05:32:08;;;;;;;1.10;0.80;;;21.80;98.60;;;;;;5029494;28;20462;-43
2022/11/11 05:34:34;;;;;;;1.20;0.90;;;21.80;98.50;;;;;;5022926;28;20463;-38
2022/11/11 05:37:01;;;;;;;1.43;1.07;;;21.70;98.50;;;;;;5032229;28;20530;-41
2022/11/11 05:39:29;;;;;;;1.30;1.10;;;21.70;98.50;;;;;;5030759;28;20818;-42
2022/11/11 05:41:56;;;;;;;1.30;1.17;;;21.70;98.40;;;;;;5028330;28;20465;-37
2022/11/11 05:44:22;;;;;;;1.40;1.10;;;21.70;98.40;;;;;;5029609;28;20465;-41
2022/11/11 05:46:49;;;;;;;1.53;0.80;;;21.70;98.40;;;;;;5021607;28;20562;-40
2022/11/11 05:49:16;;;;;;;1.30;1.10;;;21.70;98.40;;;;;;5025163;28;21095;-37
2022/11/11 05:51:42;;;;;;;1.13;0.90;;;21.70;98.40;;;;;;5030445;28;20481;-44
2022/11/11 05:54:09;;;;;;;1.10;0.90;;;21.80;98.30;;;;;;5025804;28;21420;-41
2022/11/11 05:56:37;;;;;;;1.47;1.20;;;21.80;98.20;;;;;;5031756;28;20462;-39
2022/11/11 05:59:04;;;;;;;2.50;1.30;;;21.80;98.50;;;;;;5029425;28;20461;-49
2022/11/11 06:01:31;;;;;;;1.57;1.03;;;21.80;98.10;;;;;;5031171;28;20468;-39
2022/11/11 06:03:58;;;;;;;1.73;1.07;;;21.80;98.00;;;;;;5025220;28;20497;-43
2022/11/11 06:06:25;;;;;;;1.47;1.00;;;21.80;98.00;;;;;;5028952;28;20489;-38
2022/11/11 06:08:51;;;;;;;1.27;1.00;;;21.80;97.90;;;;;;5032250;28;20458;-48
2022/11/11 06:11:19;;;;;;;1.50;1.00;;;21.80;97.80;;;;;;5028096;28;20465;-42
2022/11/11 06:13:48;;;;;;;1.00;0.80;;;21.90;97.80;;;;;;5029223;28;20466;-42
2022/11/11 06:16:14;;;;;;;2.50;0.90;;;21.90;97.80;;;;;;5023208;28;20500;-42
2022/11/11 06:18:41;;;;;;;1.20;0.83;;;21.80;98.00;;;;;;5027934;28;20846;-38
2022/11/11 06:21:08;;;;;;;2.03;1.07;;;21.80;97.60;;;;;;5024284;28;20464;-40
2022/11/11 06:23:35;;;;;;;1.00;0.90;;;21.80;97.60;;;;;;5031019;28;20458;-40
2022/11/11 06:26:14;;;;;;;1.20;0.90;;;21.80;97.60;;;;;;5029789;28;20480;-38
2022/11/11 06:28:42;;;;;;;1.30;0.90;;;21.80;97.60;;;;;;5020842;28;20537;-41
2022/11/11 06:31:12;;;;;;;2.97;0.97;;;21.80;97.60;;;;;;5027098;28;20466;-47
2022/11/11 06:33:39;;;;;;;1.43;0.93;;;21.80;97.60;;;;;;5024453;28;20477;-43
2022/11/11 06:36:06;;;;;;;1.20;1.10;;;21.80;97.60;;;;;;5026408;28;20458;-42
2022/11/11 06:38:34;;;;;;;1.20;0.80;;;21.80;97.60;;;;;;5030189;28;21056;-39
2022/11/11 06:41:01;;;;;;;1.40;0.90;;;21.80;97.50;;;;;;5030065;28;20451;-42
2022/11/11 06:43:27;;;;;;;1.13;0.80;;;21.90;97.50;;;;;;5028119;28;20454;-49
2022/11/11 06:45:55;;;;;;;1.10;1.00;;;21.90;97.30;;;;;;5024749;28;20482;-44
2022/11/11 06:48:25;;;;;;;1.30;1.10;;;22.00;97.20;;;;;;5026463;28;20450;-45
2022/11/11 06:50:52;;;;;;;1.20;1.00;;;22.10;97.10;;;;;;5020709;28;20452;-43
2022/11/11 06:53:20;;;;;;;1.60;1.30;;;22.10;96.90;;;;;;5030076;28;20462;-40
2022/11/11 06:55:47;;;;;;;1.00;0.80;;;22.20;96.70;;;;;;5027979;28;20467;-41
2022/11/11 06:58:16;;;;;;;1.17;0.93;;;22.20;96.50;;;;;;5025357;28;20465;-39
2022/11/11 07:00:43;;;;;;;1.10;1.00;;;22.30;96.40;;;;;;5027882;28;20504;-42
2022/11/11 07:03:12;;;;;;;1.33;1.00;;;22.30;96.30;;;;;;5024759;28;20451;-44
2022/11/11 07:05:40;;;;;;;1.50;1.00;;;22.40;96.20;;;;;;5029160;28;20845;-41
2022/11/11 07:08:10;;;;;;;1.07;0.80;;;22.40;96.00;;;;;;5031007;28;20818;-41
2022/11/11 07:10:38;;;;;;;1.20;1.00;;;22.40;95.90;;;;;;5027257;28;21028;-44
2022/11/11 07:13:05;;;;;;;1.30;0.90;;;22.40;95.90;;;;;;5030317;28;20466;-42
2022/11/11 07:15:33;;;;;;;1.10;0.90;;;22.40;95.80;;;;;;5027082;28;20466;-41
2022/11/11 07:17:59;;;;;;;1.40;1.00;;;22.40;95.80;;;;;;5019735;28;20514;-42
2022/11/11 07:20:26;;;;;;;1.00;0.80;;;22.40;95.80;;;;;;5023064;28;20976;-42
2022/11/11 07:22:54;;;;;;;1.10;0.90;;;22.40;95.80;;;;;;5027779;28;20577;-43
2022/11/11 07:25:21;;;;;;;1.00;0.80;;;22.40;95.80;;;;;;5028523;28;20463;-43
2022/11/11 07:27:47;;;;;;;1.10;0.90;;;22.40;95.70;;;;;;5025999;28;20466;-43
2022/11/11 07:30:14;;;;;;;1.30;1.17;;;22.40;95.60;;;;;;5027420;28;20459;-42
2022/11/11 07:32:45;;;;;;;1.37;0.90;;;22.40;95.60;;;;;;5020854;28;20470;-43
2022/11/11 07:35:13;;;;;;;1.00;0.80;;;22.40;95.60;;;;;;5029082;28;20490;-43
2022/11/11 07:37:41;;;;;;;1.37;1.27;;;22.40;95.60;;;;;;5028907;28;20545;-42
2022/11/11 07:40:11;;;;;;;1.00;0.90;;;22.40;95.50;;;;;;5029425;28;20503;-42
2022/11/11 07:42:38;;;;;;;1.27;1.17;;;22.40;95.50;;;;;;5025399;28;20827;-42
2022/11/11 07:45:06;;;;;;;1.50;1.00;;;22.40;95.50;;;;;;5025560;28;20541;-47
2022/11/11 07:47:33;;;;;;;1.00;0.90;;;22.40;95.50;;;;;;5024823;28;20482;-41
2022/11/11 07:50:00;;;;;;;1.20;0.93;;;22.40;95.50;;;;;;5025352;28;20513;-42
2022/11/11 07:52:27;;;;;;;1.10;0.80;;;22.40;95.40;;;;;;5027873;28;20466;-41
2022/11/11 07:54:53;;;;;;;1.67;1.20;;;22.40;95.40;;;;;;5020848;28;20976;-45
2022/11/11 07:57:22;;;;;;;1.00;0.80;;;22.40;95.40;;;;;;5026236;28;21004;-43
2022/11/11 07:59:48;;;;;;;1.10;0.90;;;22.40;95.30;;;;;;5028830;28;20465;-42
2022/11/11 08:02:16;;;;;;;1.00;0.90;;;22.40;95.20;;;;;;5020598;28;20859;-42
2022/11/11 08:04:43;;;;;;;1.10;0.80;;;22.40;95.20;;;;;;5022536;28;21008;-42
2022/11/11 08:07:10;;;;;;;0.90;0.70;;;22.40;95.20;;;;;;5025704;28;20475;-41
2022/11/11 08:09:36;;;;;;;1.20;0.80;;;22.40;95.20;;;;;;5021040;28;20450;-41
2022/11/11 08:14:49;;;;;;;1.77;1.10;;;22.50;95.20;;;;;;5029363;28;20453;-41
2022/11/11 08:17:15;;;;;;;2.07;0.90;;;22.50;95.10;;;;;;5026854;28;20474;-43
2022/11/11 08:19:42;;;;;;;1.13;0.93;;;22.50;95.10;;;;;;5024951;28;21004;-42
2022/11/11 08:22:09;;;;;;;3.60;2.77;;;22.20;75.30;;;;;;5027907;28;20511;-31
2022/11/11 08:24:35;;;;;;;4.85;3.00;;;18.80;76.00;;;;;;5024888;28;20961;-31
2022/11/11 08:27:02;;;;;;;5.82;2.58;;;16.90;86.30;;;;;;5025967;28;20230;-31
2022/11/11 08:29:29;;;;;;;5.20;2.88;;;16.20;91.40;;;;;;5025097;28;20667;-34
2022/11/11 08:31:57;;;;;;;3.25;2.15;;;16.00;91.30;;;;;;5026381;28;20567;-31
2022/11/11 08:34:24;;;;;;;4.70;2.55;;;16.70;91.10;;;;;;5026639;28;20625;-30
2022/11/11 08:36:50;;;;;;;5.30;2.20;;;16.60;90.10;;;;;;5022095;28;20204;-37
2022/11/11 08:39:17;;;;;;;5.30;1.80;;;16.40;97.80;;;;;;5029109;28;20198;-36
2022/11/11 08:41:44;;;;;;;5.45;2.05;;;18.40;96.90;;;;;;5025981;28;20208;-42
2022/11/11 08:44:11;;;;;;;22.83;2.35;;;19.60;96.80;;;;;;5027134;28;20199;-41
2022/11/11 08:46:37;;;;;;;13.68;1.80;;;20.30;98.60;;;;;;5020650;28;20223;-43
2022/11/11 08:49:05;;;;;;;3.57;1.57;;;20.70;98.40;;;;;;5021833;28;20204;-42
2022/11/11 08:51:32;;;;;;;4.50;1.77;;;21.00;97.40;;;;;;5022171;28;20459;-41
2022/11/11 08:53:59;;;;;;;2.67;1.60;;;21.20;96.50;;;;;;5016021;28;20200;-42
2022/11/11 08:56:25;;;;;;;1.90;1.37;;;21.50;95.80;;;;;;5023900;28;20965;-41
2022/11/11 08:58:52;;;;;;;5.20;1.57;;;21.60;95.10;;;;;;5024358;28;20463;-47
2022/11/11 09:01:19;;;;;;;2.70;1.43;;;21.80;94.70;;;;;;5025435;28;20904;-41
2022/11/11 09:03:46;;;;;;;5.43;1.40;;;21.90;94.30;;;;;;5021762;28;20462;-40
2022/11/11 09:06:15;;;;;;;5.50;1.23;;;22.00;94.00;;;;;;5022083;28;20520;-44
2022/11/11 09:08:43;;;;;;;3.80;1.60;;;22.10;93.80;;;;;;5017922;28;20461;-42
2022/11/11 09:11:10;;;;;;;2.00;1.40;;;22.20;93.60;;;;;;5023606;28;20553;-38
2022/11/11 09:13:36;;;;;;;1.80;1.40;;;22.20;93.40;;;;;;5027253;28;20469;-41
2022/11/11 09:16:03;;;;;;;3.97;1.40;;;22.30;93.20;;;;;;5022741;28;20973;-47
2022/11/11 09:18:31;;;;;;;3.57;1.67;;;22.30;93.10;;;;;;5026519;28;20463;-40
2022/11/11 09:20:58;;;;;;;2.03;1.20;;;22.40;93.00;;;;;;5023761;28;20468;-43
2022/11/11 09:23:27;;;;;;;10.13;1.70;;;22.40;92.80;;;;;;5021206;28;20869;-42
2022/11/11 09:25:53;;;;;;;3.73;1.50;;;22.40;92.80;;;;;;5020523;28;20478;-41
2022/11/11 09:28:20;;;;;;;1.63;1.30;;;22.40;92.60;;;;;;5027172;28;20485;-40
2022/11/11 09:30:47;;;;;;;2.27;1.30;;;22.50;92.60;;;;;;5025701;28;20458;-38
2022/11/11 09:33:15;;;;;;;1.70;1.60;;;22.40;92.40;;;;;;5025325;28;20459;-45
2022/11/11 09:35:42;;;;;;;2.13;1.40;;;22.50;92.30;;;;;;5024247;28;20472;-38
2022/11/11 09:38:09;;;;;;;2.50;1.10;;;22.50;92.40;;;;;;5024494;28;20453;-39
2022/11/11 09:40:49;;;;;;;3.57;1.20;;;22.50;92.30;;;;;;5016777;28;20878;-39
2022/11/11 09:43:28;;;;;;;1.33;1.00;;;22.50;92.30;;;;;;5016365;28;20450;-42
2022/11/11 09:46:08;;;;;;;1.87;1.20;;;22.50;92.20;;;;;;5022409;28;20459;-39
2022/11/11 09:48:48;;;;;;;1.90;1.30;;;22.50;92.20;;;;;;5022005;28;20457;-39
2022/11/11 09:51:20;;;;;;;4.90;1.93;;;22.50;92.20;;;;;;5025752;28;20462;-39
2022/11/11 09:53:52;;;;;;;4.80;1.20;;;22.50;92.20;;;;;;5021289;28;20471;-40
2022/11/11 09:56:22;;;;;;;2.30;1.30;;;22.50;92.10;;;;;;5022624;28;20617;-41
2022/11/11 09:58:51;;;;;;;1.60;1.10;;;22.50;92.20;;;;;;5019178;28;20455;-41
2022/11/11 10:01:21;;;;;;;1.83;1.10;;;22.50;92.20;;;;;;5023481;28;20454;-41
2022/11/11 10:03:54;;;;;;;1.53;1.10;;;22.50;92.20;;;;;;5014460;28;20473;-42
2022/11/11 10:06:26;;;;;;;1.60;1.23;;;22.50;92.10;;;;;;5021043;28;20486;-38
2022/11/11 10:09:01;;;;;;;1.67;1.27;;;22.50;92.30;;;;;;5028566;28;20829;-39
2022/11/11 10:11:40;;;;;;;1.50;1.17;;;22.60;92.00;;;;;;5027494;28;20711;-44
2022/11/11 10:14:07;;;;;;;1.27;0.90;;;22.60;92.10;;;;;;5026683;28;20462;-37
2022/11/11 10:16:44;;;;;;;3.30;1.50;;;22.60;92.00;;;;;;5030171;28;20482;-35
2022/11/11 10:19:25;;;;;;;1.57;1.10;;;22.70;92.10;;;;;;5027562;28;20469;-38
2022/11/11 10:21:54;;;;;;;3.20;1.40;;;22.70;92.00;;;;;;5028152;28;20482;-37
2022/11/11 10:24:29;;;;;;;2.73;1.40;;;22.80;91.90;;;;;;5028240;28;20551;-44
2022/11/11 10:27:00;;;;;;;1.50;1.10;;;22.80;91.80;;;;;;5031684;28;20587;-36
2022/11/11 10:29:31;;;;;;;1.70;1.13;;;22.80;91.70;;;;;;5033667;28;20458;-35
2022/11/11 10:32:04;;;;;;;1.63;1.10;;;22.90;91.60;;;;;;5024676;28;20846;-41
2022/11/11 10:34:34;;;;;;;1.60;1.10;;;23.00;91.60;;;;;;5026944;28;20462;-38
2022/11/11 10:37:02;;;;;;;1.60;1.40;;;23.00;91.50;;;;;;5029014;28;20462;-40
2022/11/11 10:39:39;;;;;;;1.77;1.07;;;23.00;91.50;;;;;;5032720;28;20450;-40
2022/11/11 10:42:15;;;;;;;1.50;1.33;;;23.00;91.40;;;;;;5031667;28;20466;-37
2022/11/11 10:44:42;;;;;;;1.70;1.10;;;23.00;91.30;;;;;;5022621;28;20462;-38
2022/11/11 10:47:14;;;;;;;1.60;1.23;;;23.00;91.30;;;;;;5020774;28;20981;-42
2022/11/11 10:49:50;;;;;;;2.07;1.37;;;23.00;91.30;;;;;;5023794;28;20470;-37
2022/11/11 10:52:21;;;;;;;1.70;1.10;;;23.00;91.30;;;;;;5033010;28;20473;-40
2022/11/11 10:54:53;;;;;;;1.80;1.03;;;23.00;91.30;;;;;;5031886;28;20458;-37
2022/11/11 10:57:26;;;;;;;3.70;1.33;;;22.90;91.30;;;;;;5027715;28;20473;-38
2022/11/11 10:59:57;;;;;;;3.90;1.40;;;22.90;91.40;;;;;;5018048;28;20466;-45
2022/11/11 11:02:28;;;;;;;3.73;1.20;;;22.90;91.50;;;;;;5026251;28;20462;-42
2022/11/11 11:05:01;;;;;;;1.23;1.13;;;22.90;91.80;;;;;;5016954;28;20482;-42
2022/11/11 11:07:33;;;;;;;1.90;1.27;;;22.90;92.00;;;;;;5023258;28;21085;-39
2022/11/11 11:10:04;;;;;;;4.10;1.20;;;22.90;92.20;;;;;;5015307;28;20897;-43
2022/11/11 11:12:38;;;;;;;3.20;1.20;;;22.90;92.20;;;;;;5016953;28;20456;-39
2022/11/11 11:15:10;;;;;;;1.53;1.40;;;22.90;92.30;;;;;;5021185;28;20463;-39
2022/11/11 11:17:42;;;;;;;2.87;1.30;;;22.90;92.40;;;;;;5028677;28;20485;-41
2022/11/11 11:20:12;;;;;;;1.70;1.10;;;23.00;92.40;;;;;;5021265;28;20454;-36
2022/11/11 11:22:47;;;;;;;1.50;1.00;;;22.90;92.50;;;;;;5025220;28;20942;-39
2022/11/11 11:25:15;;;;;;;1.90;1.03;;;23.00;92.60;;;;;;5028226;28;20964;-40
2022/11/11 11:27:43;;;;;;;2.17;0.90;;;22.90;92.50;;;;;;5014995;28;20835;-38
2022/11/11 11:30:15;;;;;;;1.30;1.00;;;22.90;92.60;;;;;;5028748;28;20470;-42
2022/11/11 11:32:43;;;;;;;1.60;0.90;;;22.90;92.70;;;;;;5017911;28;20458;-38
2022/11/11 11:35:29;;;;;;;2.93;1.10;;;23.00;92.70;;;;;;5018566;28;20477;-42
2022/11/11 11:37:56;;;;;;;2.70;1.50;;;23.00;92.80;;;;;;5020178;28;20486;-44
2022/11/11 11:40:23;;;;;;;3.57;1.20;;;23.00;92.80;;;;;;5027507;28;20961;-36
2022/11/11 11:42:51;;;;;;;1.40;1.00;;;22.90;93.20;;;;;;5025688;28;20453;-42
2022/11/11 11:45:23;;;;;;;1.20;1.10;;;23.00;93.00;;;;;;5016383;28;20466;-43
2022/11/11 11:48:00;;;;;;;1.10;0.80;;;22.90;93.00;;;;;;5011577;28;20478;-44
2022/11/11 11:50:42;;;;;;;1.20;1.00;;;23.00;93.10;;;;;;5020740;28;20443;-42
2022/11/11 11:53:27;;;;;;;1.40;0.70;;;22.90;93.10;;;;;;5025037;28;20501;-41
2022/11/11 11:56:00;;;;;;;3.37;1.00;;;22.90;93.10;;;;;;5016330;28;20459;-41
2022/11/11 11:58:40;;;;;;;1.40;1.00;;;23.00;93.10;;;;;;5025780;28;20454;-38
2022/11/11 12:01:13;;;;;;;1.10;1.00;;;22.90;93.20;;;;;;5023191;28;20462;-41
2022/11/11 12:04:15;;;;;;;1.60;0.97;;;23.00;93.30;;;;;;5031007;28;20533;-41
2022/11/11 12:06:50;;;;;;;1.40;0.90;;;22.90;93.30;;;;;;5018741;28;20457;-41
2022/11/11 12:09:29;;;;;;;1.00;0.80;;;22.90;93.30;;;;;;5021475;28;20810;-40
2022/11/11 12:12:03;;;;;;;2.00;1.10;;;23.00;93.70;;;;;;5021119;28;20462;-41
2022/11/11 12:14:42;;;;;;;1.30;1.10;;;22.90;93.30;;;;;;5023611;28;20458;-45
2022/11/11 12:17:18;;;;;;;1.23;1.03;;;22.90;93.40;;;;;;5024842;28;20493;-41
2022/11/11 12:19:55;;;;;;;1.20;0.90;;;22.90;93.40;;;;;;5021074;28;21002;-39
2022/11/11 12:22:47;;;;;;;2.10;1.27;;;23.00;93.50;;;;;;5022808;28;20446;-37
2022/11/11 12:25:20;;;;;;;2.30;0.80;;;22.90;93.40;;;;;;5013553;28;20514;-40
2022/11/11 12:27:56;;;;;;;2.03;1.10;;;22.90;93.50;;;;;;5018904;28;20486;-45
2022/11/11 12:30:27;;;;;;;1.10;0.90;;;22.90;93.50;;;;;;5019122;28;20459;-44
2022/11/11 12:33:42;;;;;;;1.20;0.90;;;22.90;93.50;;;;;;5020239;28;20451;-45
2022/11/11 12:36:13;;;;;;;3.20;1.80;;;23.00;93.60;;;;;;4983378;28;20540;-47
2022/11/11 12:38:53;;;;;;;2.13;0.90;;;22.90;93.60;;;;;;5025343;28;21080;-42
2022/11/11 12:41:27;;;;;;;1.77;0.90;;;22.90;93.50;;;;;;5029512;28;20971;-46
2022/11/11 12:44:03;;;;;;;1.10;0.90;;;22.90;93.50;;;;;;5023447;28;20470;-40
2022/11/11 12:46:40;;;;;;;1.00;0.87;;;22.90;93.60;;;;;;5027376;28;20466;-40
2022/11/11 12:49:23;;;;;;;1.27;1.10;;;22.90;93.50;;;;;;5025618;28;20477;-46
2022/11/11 12:51:56;;;;;;;1.27;1.00;;;22.90;93.60;;;;;;5016783;28;20463;-52
2022/11/11 12:54:31;;;;;;;1.20;1.10;;;22.90;93.50;;;;;;5024582;28;20458;-42
2022/11/11 12:57:09;;;;;;;1.10;1.00;;;22.90;93.40;;;;;;5024414;28;20968;-45
2022/11/11 12:59:55;;;;;;;1.20;1.00;;;22.90;93.40;;;;;;5023062;28;20462;-37
2022/11/11 13:03:00;;;;;;;2.53;0.93;;;23.00;93.50;;;;;;5014896;28;21106;-42
2022/11/11 13:05:31;;;;;;;1.87;1.07;;;22.90;93.50;;;;;;5019015;28;20447;-42
2022/11/11 13:08:38;;;;;;;1.50;1.03;;;22.90;93.40;;;;;;5012241;28;20487;-38
2022/11/11 13:11:15;;;;;;;1.17;0.90;;;22.90;93.40;;;;;;5016954;28;20510;-42
2022/11/11 13:13:52;;;;;;;2.73;1.23;;;22.90;93.40;;;;;;5013792;28;20650;-36
2022/11/11 13:16:23;;;;;;;1.30;0.77;;;22.90;93.40;;;;;;5027771;28;20481;-41
2022/11/11 13:18:56;;;;;;;1.50;1.00;;;23.00;93.50;;;;;;5016622;28;20469;-39
2022/11/11 13:21:27;;;;;;;3.53;0.97;;;22.90;93.40;;;;;;5015727;28;20519;-43
2022/11/11 13:23:53;;;;;;;1.50;1.00;;;22.90;93.30;;;;;;5019474;28;20459;-45
2022/11/11 13:26:30;;;;;;;0.97;0.70;;;22.90;93.30;;;;;;5019278;28;20481;-41
2022/11/11 13:29:08;;;;;;;1.67;1.10;;;22.90;93.20;;;;;;5013607;28;20486;-36
2022/11/11 13:31:37;;;;;;;1.77;1.10;;;22.90;93.10;;;;;;5019414;28;20462;-41
2022/11/11 13:34:10;;;;;;;0.90;0.80;;;22.90;92.90;;;;;;5013781;28;20474;-44
2022/11/11 13:36:43;;;;;;;1.47;1.23;;;22.90;92.90;;;;;;5022171;28;20485;-43
2022/11/11 13:39:23;;;;;;;2.53;1.00;;;22.90;92.90;;;;;;5025138;28;20472;-42
2022/11/11 13:41:53;;;;;;;2.00;1.10;;;22.90;92.80;;;;;;5026066;28;20477;-42
2022/11/11 13:44:24;;;;;;;1.80;0.87;;;22.90;92.70;;;;;;5016648;28;20462;-42
2022/11/11 13:46:51;;;;;;;1.30;0.90;;;22.90;92.60;;;;;;5026435;28;20513;-42
2022/11/11 13:49:26;;;;;;;1.50;0.80;;;22.90;92.40;;;;;;5024464;28;20490;-42
2022/11/11 13:51:58;;;;;;;1.40;1.00;;;22.90;92.40;;;;;;5028614;28;20462;-31
2022/11/11 13:54:28;;;;;;;2.70;1.27;;;22.90;86.30;;;;;;5022422;28;20487;-39
2022/11/11 13:57:05;;;;;;;3.93;1.03;;;21.10;64.60;;;;;;5021373;28;20819;-36
2022/11/11 13:59:35;;;;;;;3.45;1.48;;;20.20;66.90;;;;;;5027849;28;20461;-31
2022/11/11 14:02:30;;;;;;;7.43;1.05;;;19.70;66.40;;;;;;5027659;28;22018;-31
2022/11/11 14:05:26;;;;;;;2.65;1.23;;;19.60;71.00;;;;;;5021604;28;20599;-31
2022/11/11 14:07:58;;;;;;;1.45;0.90;;;19.60;65.10;;;;;;4997660;28;20650;-31
2022/11/11 14:10:51;;;;;;;1.40;0.80;;;19.40;66.50;;;;;;5031344;28;20434;-31
2022/11/11 14:13:37;;;;;;;3.65;1.25;;;19.10;69.10;;;;;;5023604;28;20211;-31
2022/11/11 14:16:04;;;;;;;2.25;1.00;;;19.30;68.80;;;;;;5016874;28;20574;-36
2022/11/11 14:18:39;;;;;;;1.30;1.00;;;18.90;65.40;;;;;;5027348;28;20209;-32